sensor_id;sensor_type;location;lat;lon;timestamp;temperature;humidity
580;DHT22;276;48.392;9.950;2023-02-19T00:01:46;11.70;99.90
580;DHT22;276;48.392;9.950;2023-02-19T00:04:19;11.70;99.90
580;DHT22;276;48.392;9.950;2023-02-19T00:06:46;11.70;99.90
580;DHT22;276;48.392;9.950;2023-02-19T00:09:19;11.70;99.90
580;DHT22;276;48.392;9.950;2023-02-19T00:11:47;11.70;99.90
580;DHT22;276;48.392;9.950;2023-02-19T00:14:18;11.70;99.90
580;DHT22;276;48.392;9.950;2023-02-19T00:16:49;11.70;99.90
580;DHT22;276;48.392;9.950;2023-02-19T00:19:17;11.60;99.90
580;DHT22;276;48.392;9.950;2023-02-19T00:21:43;11.60;99.90
580;DHT22;276;48.392;9.950;2023-02-19T00:24:13;11.60;99.90
580;DHT22;276;48.392;9.950;2023-02-19T00:26:40;11.60;99.90
580;DHT22;276;48.392;9.950;2023-02-19T00:29:11;11.60;99.90
580;DHT22;276;48.392;9.950;2023-02-19T00:31:40;11.60;99.90
580;DHT22;276;48.392;9.950;2023-02-19T00:34:09;11.50;99.90
580;DHT22;276;48.392;9.950;2023-02-19T00:36:39;11.50;99.90
580;DHT22;276;48.392;9.950;2023-02-19T00:39:10;11.50;99.90
580;DHT22;276;48.392;9.950;2023-02-19T00:41:38;11.50;99.90
580;DHT22;276;48.392;9.950;2023-02-19T00:44:07;11.50;99.90
580;DHT22;276;48.392;9.950;2023-02-19T00:46:44;11.50;99.90
580;DHT22;276;48.392;9.950;2023-02-19T00:49:19;11.50;99.90
580;DHT22;276;48.392;9.950;2023-02-19T00:51:47;11.40;99.90
580;DHT22;276;48.392;9.950;2023-02-19T00:54:15;11.40;99.90
580;DHT22;276;48.392;9.950;2023-02-19T00:56:41;11.50;99.90
580;DHT22;276;48.392;9.950;2023-02-19T00:59:07;11.50;99.90
580;DHT22;276;48.392;9.950;2023-02-19T01:01:33;11.40;99.90
580;DHT22;276;48.392;9.950;2023-02-19T01:03:58;11.40;99.90
580;DHT22;276;48.392;9.950;2023-02-19T01:06:29;11.40;99.90
580;DHT22;276;48.392;9.950;2023-02-19T01:08:58;11.40;99.90
580;DHT22;276;48.392;9.950;2023-02-19T01:11:24;11.40;99.90
580;DHT22;276;48.392;9.950;2023-02-19T01:13:56;11.40;99.90
580;DHT22;276;48.392;9.950;2023-02-19T01:16:23;11.40;99.90
580;DHT22;276;48.392;9.950;2023-02-19T01:18:52;11.30;99.90
580;DHT22;276;48.392;9.950;2023-02-19T01:21:24;11.40;99.90
580;DHT22;276;48.392;9.950;2023-02-19T01:23:56;11.40;99.90
580;DHT22;276;48.392;9.950;2023-02-19T01:26:27;11.30;99.90
580;DHT22;276;48.392;9.950;2023-02-19T01:28:53;11.30;99.90
580;DHT22;276;48.392;9.950;2023-02-19T01:31:21;11.30;99.90
580;DHT22;276;48.392;9.950;2023-02-19T01:33:50;11.30;99.90
580;DHT22;276;48.392;9.950;2023-02-19T01:36:21;11.40;99.90
580;DHT22;276;48.392;9.950;2023-02-19T01:38:47;11.40;99.90
580;DHT22;276;48.392;9.950;2023-02-19T01:41:18;11.40;99.90
580;DHT22;276;48.392;9.950;2023-02-19T01:46:33;11.40;99.90
580;DHT22;276;48.392;9.950;2023-02-19T01:49:19;11.40;99.90
580;DHT22;276;48.392;9.950;2023-02-19T01:51:48;11.30;99.90
580;DHT22;276;48.392;9.950;2023-02-19T01:54:18;11.30;99.90
580;DHT22;276;48.392;9.950;2023-02-19T01:56:48;11.30;99.90
580;DHT22;276;48.392;9.950;2023-02-19T01:59:15;11.30;99.90
580;DHT22;276;48.392;9.950;2023-02-19T02:01:44;11.30;99.90
580;DHT22;276;48.392;9.950;2023-02-19T02:04:13;11.20;99.90
580;DHT22;276;48.392;9.950;2023-02-19T02:06:48;11.20;99.90
580;DHT22;276;48.392;9.950;2023-02-19T02:09:15;11.20;99.90
580;DHT22;276;48.392;9.950;2023-02-19T02:12:01;11.20;99.90
580;DHT22;276;48.392;9.950;2023-02-19T02:14:29;11.20;99.90
580;DHT22;276;48.392;9.950;2023-02-19T02:22:59;11.20;99.90
580;DHT22;276;48.392;9.950;2023-02-19T02:31:24;11.10;99.90
580;DHT22;276;48.392;9.950;2023-02-19T02:37:02;11.20;99.90
580;DHT22;276;48.392;9.950;2023-02-19T02:39:29;11.20;99.90
580;DHT22;276;48.392;9.950;2023-02-19T02:41:59;11.20;99.90
580;DHT22;276;48.392;9.950;2023-02-19T02:44:43;11.20;99.90
580;DHT22;276;48.392;9.950;2023-02-19T02:47:39;11.20;99.90
580;DHT22;276;48.392;9.950;2023-02-19T02:50:09;11.20;99.90
580;DHT22;276;48.392;9.950;2023-02-19T02:52:40;11.20;99.90
580;DHT22;276;48.392;9.950;2023-02-19T02:55:33;11.20;99.90
580;DHT22;276;48.392;9.950;2023-02-19T02:58:02;11.10;99.90
580;DHT22;276;48.392;9.950;2023-02-19T03:00:28;11.10;99.90
580;DHT22;276;48.392;9.950;2023-02-19T03:03:18;11.10;99.90
580;DHT22;276;48.392;9.950;2023-02-19T03:05:51;11.10;99.90
580;DHT22;276;48.392;9.950;2023-02-19T03:08:29;11.10;99.90
580;DHT22;276;48.392;9.950;2023-02-19T03:11:06;11.10;99.90
580;DHT22;276;48.392;9.950;2023-02-19T03:13:58;11.10;99.90
580;DHT22;276;48.392;9.950;2023-02-19T03:16:45;11.20;99.90
580;DHT22;276;48.392;9.950;2023-02-19T03:19:39;11.10;99.90
580;DHT22;276;48.392;9.950;2023-02-19T03:22:24;11.10;99.90
580;DHT22;276;48.392;9.950;2023-02-19T03:25:04;11.00;99.90
580;DHT22;276;48.392;9.950;2023-02-19T03:27:50;11.00;99.90
580;DHT22;276;48.392;9.950;2023-02-19T03:30:23;11.00;99.90
580;DHT22;276;48.392;9.950;2023-02-19T03:32:59;11.00;99.90
580;DHT22;276;48.392;9.950;2023-02-19T03:35:31;11.00;99.90
580;DHT22;276;48.392;9.950;2023-02-19T03:38:19;10.90;99.90
580;DHT22;276;48.392;9.950;2023-02-19T03:40:55;10.90;99.90
580;DHT22;276;48.392;9.950;2023-02-19T03:43:41;10.90;99.90
580;DHT22;276;48.392;9.950;2023-02-19T03:46:12;10.90;99.90
580;DHT22;276;48.392;9.950;2023-02-19T03:49:04;10.90;99.90
580;DHT22;276;48.392;9.950;2023-02-19T03:51:40;11.00;99.90
580;DHT22;276;48.392;9.950;2023-02-19T03:57:19;11.10;99.90
580;DHT22;276;48.392;9.950;2023-02-19T03:59:53;11.00;99.90
580;DHT22;276;48.392;9.950;2023-02-19T04:02:34;11.00;99.90
580;DHT22;276;48.392;9.950;2023-02-19T04:05:08;11.00;99.90
580;DHT22;276;48.392;9.950;2023-02-19T04:07:43;11.00;99.90
580;DHT22;276;48.392;9.950;2023-02-19T04:10:12;11.00;99.90
580;DHT22;276;48.392;9.950;2023-02-19T04:12:43;11.00;99.90
580;DHT22;276;48.392;9.950;2023-02-19T04:15:15;11.00;99.90
580;DHT22;276;48.392;9.950;2023-02-19T04:17:58;10.90;99.90
580;DHT22;276;48.392;9.950;2023-02-19T04:20:28;10.90;99.90
580;DHT22;276;48.392;9.950;2023-02-19T04:22:56;10.90;99.90
580;DHT22;276;48.392;9.950;2023-02-19T04:25:23;10.90;99.90
580;DHT22;276;48.392;9.950;2023-02-19T04:27:52;10.90;99.90
580;DHT22;276;48.392;9.950;2023-02-19T04:30:19;11.00;99.90
580;DHT22;276;48.392;9.950;2023-02-19T04:32:45;10.90;99.90
580;DHT22;276;48.392;9.950;2023-02-19T04:35:13;10.90;99.90
580;DHT22;276;48.392;9.950;2023-02-19T04:37:41;11.00;99.90
580;DHT22;276;48.392;9.950;2023-02-19T04:40:09;11.00;99.90
580;DHT22;276;48.392;9.950;2023-02-19T04:42:37;11.00;99.90
580;DHT22;276;48.392;9.950;2023-02-19T04:45:03;11.00;99.90
580;DHT22;276;48.392;9.950;2023-02-19T04:47:31;11.00;99.90
580;DHT22;276;48.392;9.950;2023-02-19T04:50:00;11.00;99.90
580;DHT22;276;48.392;9.950;2023-02-19T04:52:27;11.00;99.90
580;DHT22;276;48.392;9.950;2023-02-19T04:54:55;11.00;99.90
580;DHT22;276;48.392;9.950;2023-02-19T04:57:21;11.00;99.90
580;DHT22;276;48.392;9.950;2023-02-19T04:59:51;11.00;99.90
580;DHT22;276;48.392;9.950;2023-02-19T05:02:19;11.00;99.90
580;DHT22;276;48.392;9.950;2023-02-19T05:04:45;11.00;99.90
580;DHT22;276;48.392;9.950;2023-02-19T05:07:10;11.10;99.90
580;DHT22;276;48.392;9.950;2023-02-19T05:09:36;11.10;99.90
580;DHT22;276;48.392;9.950;2023-02-19T05:12:04;11.10;99.90
580;DHT22;276;48.392;9.950;2023-02-19T05:14:29;11.10;99.90
580;DHT22;276;48.392;9.950;2023-02-19T05:16:55;11.20;99.90
580;DHT22;276;48.392;9.950;2023-02-19T05:19:21;11.20;99.90
580;DHT22;276;48.392;9.950;2023-02-19T05:21:49;11.20;99.90
580;DHT22;276;48.392;9.950;2023-02-19T05:24:14;11.30;99.90
580;DHT22;276;48.392;9.950;2023-02-19T05:26:42;11.30;99.90
580;DHT22;276;48.392;9.950;2023-02-19T05:29:08;11.40;99.90
580;DHT22;276;48.392;9.950;2023-02-19T05:31:38;11.40;99.90
580;DHT22;276;48.392;9.950;2023-02-19T05:34:04;11.40;99.90
580;DHT22;276;48.392;9.950;2023-02-19T05:36:32;11.40;99.90
580;DHT22;276;48.392;9.950;2023-02-19T05:39:01;11.50;99.90
580;DHT22;276;48.392;9.950;2023-02-19T05:41:28;11.50;99.90
580;DHT22;276;48.392;9.950;2023-02-19T05:43:55;11.50;99.90
580;DHT22;276;48.392;9.950;2023-02-19T05:46:23;11.60;99.90
580;DHT22;276;48.392;9.950;2023-02-19T05:48:50;11.60;99.90
580;DHT22;276;48.392;9.950;2023-02-19T05:51:18;11.60;99.90
580;DHT22;276;48.392;9.950;2023-02-19T05:53:45;11.60;99.90
580;DHT22;276;48.392;9.950;2023-02-19T05:58:51;11.70;99.90
580;DHT22;276;48.392;9.950;2023-02-19T06:01:23;11.70;99.90
580;DHT22;276;48.392;9.950;2023-02-19T06:03:49;11.80;99.90
580;DHT22;276;48.392;9.950;2023-02-19T06:06:18;11.80;99.90
580;DHT22;276;48.392;9.950;2023-02-19T06:08:47;11.80;99.90
580;DHT22;276;48.392;9.950;2023-02-19T06:11:13;11.80;99.90
580;DHT22;276;48.392;9.950;2023-02-19T06:13:39;11.80;99.90
580;DHT22;276;48.392;9.950;2023-02-19T06:16:06;11.70;99.90
580;DHT22;276;48.392;9.950;2023-02-19T06:18:32;11.70;99.90
580;DHT22;276;48.392;9.950;2023-02-19T06:21:04;11.70;99.90
580;DHT22;276;48.392;9.950;2023-02-19T06:23:33;11.70;99.90
580;DHT22;276;48.392;9.950;2023-02-19T06:26:23;11.70;99.90
580;DHT22;276;48.392;9.950;2023-02-19T06:28:51;11.70;99.90
580;DHT22;276;48.392;9.950;2023-02-19T06:31:18;11.70;99.90
580;DHT22;276;48.392;9.950;2023-02-19T06:33:47;11.70;99.90
580;DHT22;276;48.392;9.950;2023-02-19T06:36:17;11.70;99.90
580;DHT22;276;48.392;9.950;2023-02-19T06:38:43;11.70;99.90
580;DHT22;276;48.392;9.950;2023-02-19T06:41:11;11.70;99.90
580;DHT22;276;48.392;9.950;2023-02-19T06:43:39;11.60;99.90
580;DHT22;276;48.392;9.950;2023-02-19T06:46:07;11.70;99.90
580;DHT22;276;48.392;9.950;2023-02-19T06:48:40;11.60;99.90
580;DHT22;276;48.392;9.950;2023-02-19T06:51:15;11.60;99.90
580;DHT22;276;48.392;9.950;2023-02-19T06:53:43;11.60;99.90
580;DHT22;276;48.392;9.950;2023-02-19T06:56:27;11.60;99.90
580;DHT22;276;48.392;9.950;2023-02-19T06:58:54;11.60;99.90
580;DHT22;276;48.392;9.950;2023-02-19T07:01:21;11.60;99.90
580;DHT22;276;48.392;9.950;2023-02-19T07:03:47;11.60;99.90
580;DHT22;276;48.392;9.950;2023-02-19T07:06:17;11.60;99.90
580;DHT22;276;48.392;9.950;2023-02-19T07:08:42;11.60;99.90
580;DHT22;276;48.392;9.950;2023-02-19T07:11:08;11.60;99.90
580;DHT22;276;48.392;9.950;2023-02-19T07:13:33;11.60;99.90
580;DHT22;276;48.392;9.950;2023-02-19T07:16:01;11.60;99.90
580;DHT22;276;48.392;9.950;2023-02-19T07:18:28;11.60;99.90
580;DHT22;276;48.392;9.950;2023-02-19T07:21:10;11.60;99.90
580;DHT22;276;48.392;9.950;2023-02-19T07:23:42;11.60;99.90
580;DHT22;276;48.392;9.950;2023-02-19T07:26:13;11.60;99.90
580;DHT22;276;48.392;9.950;2023-02-19T07:28:43;11.60;99.90
580;DHT22;276;48.392;9.950;2023-02-19T07:31:12;11.60;99.90
580;DHT22;276;48.392;9.950;2023-02-19T07:33:38;11.70;99.90
580;DHT22;276;48.392;9.950;2023-02-19T07:36:06;11.70;99.90
580;DHT22;276;48.392;9.950;2023-02-19T07:38:34;11.80;99.90
580;DHT22;276;48.392;9.950;2023-02-19T07:41:01;11.80;99.90
580;DHT22;276;48.392;9.950;2023-02-19T07:43:30;11.80;99.90
580;DHT22;276;48.392;9.950;2023-02-19T07:46:08;11.90;99.90
580;DHT22;276;48.392;9.950;2023-02-19T07:48:38;11.90;99.90
580;DHT22;276;48.392;9.950;2023-02-19T07:51:06;12.00;99.90
580;DHT22;276;48.392;9.950;2023-02-19T07:53:33;12.10;99.90
580;DHT22;276;48.392;9.950;2023-02-19T07:56:01;12.10;99.90
580;DHT22;276;48.392;9.950;2023-02-19T07:58:27;12.10;99.90
580;DHT22;276;48.392;9.950;2023-02-19T08:00:55;12.00;99.90
580;DHT22;276;48.392;9.950;2023-02-19T08:03:21;12.00;99.90
580;DHT22;276;48.392;9.950;2023-02-19T08:05:51;11.90;99.90
580;DHT22;276;48.392;9.950;2023-02-19T08:08:20;11.80;99.90
580;DHT22;276;48.392;9.950;2023-02-19T08:10:45;11.70;99.90
580;DHT22;276;48.392;9.950;2023-02-19T08:13:50;11.70;99.90
580;DHT22;276;48.392;9.950;2023-02-19T08:16:18;11.60;99.90
580;DHT22;276;48.392;9.950;2023-02-19T08:18:47;11.50;99.90
580;DHT22;276;48.392;9.950;2023-02-19T08:21:13;11.50;99.90
580;DHT22;276;48.392;9.950;2023-02-19T08:23:39;11.50;99.90
580;DHT22;276;48.392;9.950;2023-02-19T08:26:08;11.50;99.90
580;DHT22;276;48.392;9.950;2023-02-19T08:28:34;11.50;99.90
580;DHT22;276;48.392;9.950;2023-02-19T08:31:01;11.40;99.90
580;DHT22;276;48.392;9.950;2023-02-19T08:33:28;11.40;99.90
580;DHT22;276;48.392;9.950;2023-02-19T08:35:56;11.40;99.90
580;DHT22;276;48.392;9.950;2023-02-19T08:38:26;11.40;99.90
580;DHT22;276;48.392;9.950;2023-02-19T08:40:54;11.40;99.90
580;DHT22;276;48.392;9.950;2023-02-19T08:43:20;11.50;99.90
580;DHT22;276;48.392;9.950;2023-02-19T08:45:45;11.50;99.90
580;DHT22;276;48.392;9.950;2023-02-19T08:48:14;11.60;99.90
580;DHT22;276;48.392;9.950;2023-02-19T08:50:40;11.70;99.90
580;DHT22;276;48.392;9.950;2023-02-19T08:53:08;11.70;99.90
580;DHT22;276;48.392;9.950;2023-02-19T08:55:36;11.70;99.90
580;DHT22;276;48.392;9.950;2023-02-19T08:58:03;11.70;99.90
580;DHT22;276;48.392;9.950;2023-02-19T09:00:28;11.70;99.90
580;DHT22;276;48.392;9.950;2023-02-19T09:02:56;11.70;99.90
580;DHT22;276;48.392;9.950;2023-02-19T09:05:24;11.70;99.90
580;DHT22;276;48.392;9.950;2023-02-19T09:07:52;11.70;99.90
580;DHT22;276;48.392;9.950;2023-02-19T09:10:20;11.60;99.90
580;DHT22;276;48.392;9.950;2023-02-19T09:12:46;11.60;99.90
580;DHT22;276;48.392;9.950;2023-02-19T09:15:11;11.60;99.90
580;DHT22;276;48.392;9.950;2023-02-19T09:17:39;11.60;99.90
580;DHT22;276;48.392;9.950;2023-02-19T09:20:05;11.60;99.90
580;DHT22;276;48.392;9.950;2023-02-19T09:22:31;11.60;99.90
580;DHT22;276;48.392;9.950;2023-02-19T09:24:56;11.70;99.90
580;DHT22;276;48.392;9.950;2023-02-19T09:27:22;11.70;99.90
580;DHT22;276;48.392;9.950;2023-02-19T09:29:47;11.80;99.90
580;DHT22;276;48.392;9.950;2023-02-19T09:32:15;11.80;99.90
580;DHT22;276;48.392;9.950;2023-02-19T09:34:43;11.80;99.90
580;DHT22;276;48.392;9.950;2023-02-19T09:37:08;11.90;99.90
580;DHT22;276;48.392;9.950;2023-02-19T09:39:36;11.90;99.90
580;DHT22;276;48.392;9.950;2023-02-19T09:42:12;11.90;99.90
580;DHT22;276;48.392;9.950;2023-02-19T09:44:42;12.00;99.90
580;DHT22;276;48.392;9.950;2023-02-19T09:47:16;11.90;99.90
580;DHT22;276;48.392;9.950;2023-02-19T09:49:43;11.90;99.90
580;DHT22;276;48.392;9.950;2023-02-19T09:52:17;11.90;99.90
580;DHT22;276;48.392;9.950;2023-02-19T09:54:45;11.80;99.90
580;DHT22;276;48.392;9.950;2023-02-19T09:57:17;11.90;99.90
580;DHT22;276;48.392;9.950;2023-02-19T10:02:12;12.00;99.90
580;DHT22;276;48.392;9.950;2023-02-19T10:04:42;12.00;99.90
580;DHT22;276;48.392;9.950;2023-02-19T10:07:25;11.90;99.90
580;DHT22;276;48.392;9.950;2023-02-19T10:09:58;11.80;99.90
580;DHT22;276;48.392;9.950;2023-02-19T10:12:30;11.70;99.90
580;DHT22;276;48.392;9.950;2023-02-19T10:15:09;11.80;99.90
580;DHT22;276;48.392;9.950;2023-02-19T10:17:38;11.70;99.90
580;DHT22;276;48.392;9.950;2023-02-19T10:20:04;11.80;99.90
580;DHT22;276;48.392;9.950;2023-02-19T10:22:31;11.80;99.90
580;DHT22;276;48.392;9.950;2023-02-19T10:24:58;11.90;99.90
580;DHT22;276;48.392;9.950;2023-02-19T10:27:29;11.90;99.90
580;DHT22;276;48.392;9.950;2023-02-19T10:29:55;12.00;99.90
580;DHT22;276;48.392;9.950;2023-02-19T10:32:23;12.00;99.90
580;DHT22;276;48.392;9.950;2023-02-19T10:35:12;12.00;99.90
580;DHT22;276;48.392;9.950;2023-02-19T10:37:48;12.10;99.90
580;DHT22;276;48.392;9.950;2023-02-19T10:40:21;12.20;99.90
580;DHT22;276;48.392;9.950;2023-02-19T10:42:56;12.20;99.90
580;DHT22;276;48.392;9.950;2023-02-19T10:45:39;12.10;99.90
580;DHT22;276;48.392;9.950;2023-02-19T10:48:24;12.10;99.90
580;DHT22;276;48.392;9.950;2023-02-19T10:50:54;12.10;99.90
580;DHT22;276;48.392;9.950;2023-02-19T10:53:23;12.10;99.90
580;DHT22;276;48.392;9.950;2023-02-19T10:58:37;12.00;99.90
580;DHT22;276;48.392;9.950;2023-02-19T11:03:35;12.00;99.90
580;DHT22;276;48.392;9.950;2023-02-19T11:06:05;12.40;99.90
580;DHT22;276;48.392;9.950;2023-02-19T11:14:00;14.70;99.90
580;DHT22;276;48.392;9.950;2023-02-19T11:16:42;14.70;99.90
580;DHT22;276;48.392;9.950;2023-02-19T11:21:52;14.30;99.90
580;DHT22;276;48.392;9.950;2023-02-19T11:24:31;14.20;99.90
580;DHT22;276;48.392;9.950;2023-02-19T11:27:00;14.00;99.90
580;DHT22;276;48.392;9.950;2023-02-19T11:29:26;13.90;99.90
580;DHT22;276;48.392;9.950;2023-02-19T11:34:44;13.40;99.90
580;DHT22;276;48.392;9.950;2023-02-19T11:37:18;13.20;99.90
580;DHT22;276;48.392;9.950;2023-02-19T11:39:47;13.00;99.90
580;DHT22;276;48.392;9.950;2023-02-19T11:53:30;12.50;99.90
580;DHT22;276;48.392;9.950;2023-02-19T12:01:25;12.30;99.90
580;DHT22;276;48.392;9.950;2023-02-19T12:17:42;12.90;99.90
580;DHT22;276;48.392;9.950;2023-02-19T12:26:30;13.10;99.90
580;DHT22;276;48.392;9.950;2023-02-19T12:42:14;13.00;99.90
580;DHT22;276;48.392;9.950;2023-02-19T12:44:47;13.00;99.90
580;DHT22;276;48.392;9.950;2023-02-19T12:47:19;12.90;99.90
580;DHT22;276;48.392;9.950;2023-02-19T12:49:49;12.90;99.90
580;DHT22;276;48.392;9.950;2023-02-19T12:52:23;12.70;99.90
580;DHT22;276;48.392;9.950;2023-02-19T12:54:52;12.70;99.90
580;DHT22;276;48.392;9.950;2023-02-19T12:57:27;12.60;99.90
580;DHT22;276;48.392;9.950;2023-02-19T13:00:34;12.60;99.90
580;DHT22;276;48.392;9.950;2023-02-19T13:03:17;12.50;99.90
580;DHT22;276;48.392;9.950;2023-02-19T13:05:51;12.40;99.90
580;DHT22;276;48.392;9.950;2023-02-19T13:08:21;12.30;99.90
580;DHT22;276;48.392;9.950;2023-02-19T13:11:05;12.20;99.90
580;DHT22;276;48.392;9.950;2023-02-19T13:13:51;12.20;99.90
580;DHT22;276;48.392;9.950;2023-02-19T13:16:20;12.10;99.90
580;DHT22;276;48.392;9.950;2023-02-19T13:18:57;12.10;99.90
580;DHT22;276;48.392;9.950;2023-02-19T13:21:27;12.20;99.90
580;DHT22;276;48.392;9.950;2023-02-19T13:24:19;12.20;99.90
580;DHT22;276;48.392;9.950;2023-02-19T13:33:32;12.50;99.90
580;DHT22;276;48.392;9.950;2023-02-19T13:36:17;12.50;99.90
580;DHT22;276;48.392;9.950;2023-02-19T13:38:46;12.50;99.90
580;DHT22;276;48.392;9.950;2023-02-19T13:41:20;12.60;99.90
580;DHT22;276;48.392;9.950;2023-02-19T13:44:01;12.60;99.90
580;DHT22;276;48.392;9.950;2023-02-19T13:46:40;12.70;99.90
580;DHT22;276;48.392;9.950;2023-02-19T13:52:00;12.80;99.90
580;DHT22;276;48.392;9.950;2023-02-19T13:54:31;12.70;99.90
580;DHT22;276;48.392;9.950;2023-02-19T13:59:57;12.60;99.90
580;DHT22;276;48.392;9.950;2023-02-19T14:02:27;12.60;99.90
580;DHT22;276;48.392;9.950;2023-02-19T14:09:51;12.50;99.90
580;DHT22;276;48.392;9.950;2023-02-19T14:12:19;12.60;99.90
580;DHT22;276;48.392;9.950;2023-02-19T14:14:55;12.60;99.90
580;DHT22;276;48.392;9.950;2023-02-19T14:17:41;12.70;99.90
580;DHT22;276;48.392;9.950;2023-02-19T14:25:45;12.80;99.90
580;DHT22;276;48.392;9.950;2023-02-19T14:28:32;12.90;99.90
580;DHT22;276;48.392;9.950;2023-02-19T14:31:25;12.90;99.60
580;DHT22;276;48.392;9.950;2023-02-19T14:39:28;12.80;99.40
580;DHT22;276;48.392;9.950;2023-02-19T14:42:03;12.70;99.50
580;DHT22;276;48.392;9.950;2023-02-19T14:45:02;12.70;99.50
580;DHT22;276;48.392;9.950;2023-02-19T14:47:33;12.70;99.50
580;DHT22;276;48.392;9.950;2023-02-19T14:50:07;12.70;99.40
580;DHT22;276;48.392;9.950;2023-02-19T14:52:39;12.70;99.20
580;DHT22;276;48.392;9.950;2023-02-19T14:57:44;12.80;99.30
580;DHT22;276;48.392;9.950;2023-02-19T15:02:48;12.90;99.40
580;DHT22;276;48.392;9.950;2023-02-19T15:05:15;13.00;99.30
580;DHT22;276;48.392;9.950;2023-02-19T15:07:41;13.00;99.10
580;DHT22;276;48.392;9.950;2023-02-19T15:10:09;13.00;99.00
580;DHT22;276;48.392;9.950;2023-02-19T15:12:45;13.00;98.50
580;DHT22;276;48.392;9.950;2023-02-19T15:15:21;13.00;98.70
580;DHT22;276;48.392;9.950;2023-02-19T15:17:50;13.00;98.60
580;DHT22;276;48.392;9.950;2023-02-19T15:20:19;13.10;98.60
580;DHT22;276;48.392;9.950;2023-02-19T15:22:49;12.90;98.30
580;DHT22;276;48.392;9.950;2023-02-19T15:25:19;12.90;98.40
580;DHT22;276;48.392;9.950;2023-02-19T15:27:48;12.90;98.40
580;DHT22;276;48.392;9.950;2023-02-19T15:30:27;12.90;98.20
580;DHT22;276;48.392;9.950;2023-02-19T15:32:59;12.90;98.30
580;DHT22;276;48.392;9.950;2023-02-19T15:35:26;12.90;98.00
580;DHT22;276;48.392;9.950;2023-02-19T15:37:59;12.80;97.90
580;DHT22;276;48.392;9.950;2023-02-19T15:40:30;12.70;97.80
580;DHT22;276;48.392;9.950;2023-02-19T15:42:57;12.70;98.00
580;DHT22;276;48.392;9.950;2023-02-19T15:45:40;12.70;98.20
580;DHT22;276;48.392;9.950;2023-02-19T15:48:18;12.60;98.40
580;DHT22;276;48.392;9.950;2023-02-19T15:50:49;12.60;98.60
580;DHT22;276;48.392;9.950;2023-02-19T15:53:25;12.60;98.70
580;DHT22;276;48.392;9.950;2023-02-19T16:01:23;12.30;98.60
580;DHT22;276;48.392;9.950;2023-02-19T16:03:50;12.30;98.80
580;DHT22;276;48.392;9.950;2023-02-19T16:06:17;12.30;99.10
580;DHT22;276;48.392;9.950;2023-02-19T16:09:05;12.30;99.50
580;DHT22;276;48.392;9.950;2023-02-19T16:11:52;12.10;99.90
580;DHT22;276;48.392;9.950;2023-02-19T16:17:17;12.10;99.90
580;DHT22;276;48.392;9.950;2023-02-19T16:22:21;12.20;99.90
580;DHT22;276;48.392;9.950;2023-02-19T16:24:54;12.20;99.90
580;DHT22;276;48.392;9.950;2023-02-19T16:29:57;12.20;99.90
580;DHT22;276;48.392;9.950;2023-02-19T16:32:23;12.20;99.90
580;DHT22;276;48.392;9.950;2023-02-19T16:34:51;12.10;99.90
580;DHT22;276;48.392;9.950;2023-02-19T16:37:55;12.10;99.90
580;DHT22;276;48.392;9.950;2023-02-19T16:43:24;12.10;99.90
580;DHT22;276;48.392;9.950;2023-02-19T16:45:50;12.10;99.90
580;DHT22;276;48.392;9.950;2023-02-19T16:48:22;12.10;99.90
580;DHT22;276;48.392;9.950;2023-02-19T16:50:50;12.10;99.90
580;DHT22;276;48.392;9.950;2023-02-19T16:53:21;12.10;99.90
580;DHT22;276;48.392;9.950;2023-02-19T16:55:51;12.10;99.90
580;DHT22;276;48.392;9.950;2023-02-19T16:58:19;12.10;99.90
580;DHT22;276;48.392;9.950;2023-02-19T17:00:45;12.20;99.90
580;DHT22;276;48.392;9.950;2023-02-19T17:03:16;12.20;99.90
580;DHT22;276;48.392;9.950;2023-02-19T17:05:45;12.20;99.90
580;DHT22;276;48.392;9.950;2023-02-19T17:08:34;12.30;99.90
580;DHT22;276;48.392;9.950;2023-02-19T17:11:03;12.30;99.90
580;DHT22;276;48.392;9.950;2023-02-19T17:13:31;12.30;99.90
580;DHT22;276;48.392;9.950;2023-02-19T17:16:00;12.20;99.90
580;DHT22;276;48.392;9.950;2023-02-19T17:18:30;12.20;99.90
580;DHT22;276;48.392;9.950;2023-02-19T17:21:01;12.20;99.90
580;DHT22;276;48.392;9.950;2023-02-19T17:23:31;12.20;99.90
580;DHT22;276;48.392;9.950;2023-02-19T17:25:57;12.20;99.90
580;DHT22;276;48.392;9.950;2023-02-19T17:28:25;12.20;99.90
580;DHT22;276;48.392;9.950;2023-02-19T17:30:51;12.20;99.90
580;DHT22;276;48.392;9.950;2023-02-19T17:33:16;12.10;99.90
580;DHT22;276;48.392;9.950;2023-02-19T17:35:44;12.00;99.90
580;DHT22;276;48.392;9.950;2023-02-19T17:38:13;12.00;99.90
580;DHT22;276;48.392;9.950;2023-02-19T17:40:39;11.90;99.90
580;DHT22;276;48.392;9.950;2023-02-19T17:43:05;11.90;99.90
580;DHT22;276;48.392;9.950;2023-02-19T17:45:31;11.90;99.90
580;DHT22;276;48.392;9.950;2023-02-19T17:47:57;11.90;99.90
580;DHT22;276;48.392;9.950;2023-02-19T17:50:26;11.90;99.90
580;DHT22;276;48.392;9.950;2023-02-19T17:52:54;11.90;99.90
580;DHT22;276;48.392;9.950;2023-02-19T17:55:22;11.90;99.90
580;DHT22;276;48.392;9.950;2023-02-19T17:57:52;11.90;99.90
580;DHT22;276;48.392;9.950;2023-02-19T18:00:23;12.00;99.90
580;DHT22;276;48.392;9.950;2023-02-19T18:02:49;12.00;99.90
580;DHT22;276;48.392;9.950;2023-02-19T18:05:15;12.00;99.90
580;DHT22;276;48.392;9.950;2023-02-19T18:07:40;11.90;99.90
580;DHT22;276;48.392;9.950;2023-02-19T18:10:06;11.90;99.90
580;DHT22;276;48.392;9.950;2023-02-19T18:12:36;11.90;99.90
580;DHT22;276;48.392;9.950;2023-02-19T18:15:02;11.90;99.90
580;DHT22;276;48.392;9.950;2023-02-19T18:17:33;12.00;99.90
580;DHT22;276;48.392;9.950;2023-02-19T18:20:02;12.00;99.90
580;DHT22;276;48.392;9.950;2023-02-19T18:22:33;11.90;99.90
580;DHT22;276;48.392;9.950;2023-02-19T18:24:58;11.90;99.90
580;DHT22;276;48.392;9.950;2023-02-19T18:27:29;11.90;99.90
580;DHT22;276;48.392;9.950;2023-02-19T18:29:57;11.90;99.90
580;DHT22;276;48.392;9.950;2023-02-19T18:32:25;11.90;99.90
580;DHT22;276;48.392;9.950;2023-02-19T18:34:56;11.90;99.90
580;DHT22;276;48.392;9.950;2023-02-19T18:37:26;11.90;99.90
580;DHT22;276;48.392;9.950;2023-02-19T18:39:57;11.90;99.90
580;DHT22;276;48.392;9.950;2023-02-19T18:42:23;11.90;99.90
580;DHT22;276;48.392;9.950;2023-02-19T18:44:51;11.90;99.90
580;DHT22;276;48.392;9.950;2023-02-19T18:47:21;11.90;99.90
580;DHT22;276;48.392;9.950;2023-02-19T18:49:48;11.90;99.90
580;DHT22;276;48.392;9.950;2023-02-19T18:52:16;11.80;99.90
580;DHT22;276;48.392;9.950;2023-02-19T18:54:49;11.90;99.90
580;DHT22;276;48.392;9.950;2023-02-19T18:57:19;11.90;99.90
580;DHT22;276;48.392;9.950;2023-02-19T18:59:45;11.90;99.90
580;DHT22;276;48.392;9.950;2023-02-19T19:02:13;11.90;99.90
580;DHT22;276;48.392;9.950;2023-02-19T19:04:39;11.90;99.90
580;DHT22;276;48.392;9.950;2023-02-19T19:07:06;11.80;99.90
580;DHT22;276;48.392;9.950;2023-02-19T19:09:33;11.90;99.90
580;DHT22;276;48.392;9.950;2023-02-19T19:12:01;11.80;99.90
580;DHT22;276;48.392;9.950;2023-02-19T19:14:27;11.80;99.90
580;DHT22;276;48.392;9.950;2023-02-19T19:16:52;11.70;99.90
580;DHT22;276;48.392;9.950;2023-02-19T19:19:18;11.60;99.90
580;DHT22;276;48.392;9.950;2023-02-19T19:21:53;11.60;99.90